Time;durP1;ratioP1;P1;durP2;ratioP2;P2;SDS_P1;SDS_P2;PMS_P1;PMS_P2;Temp;Humidity;BMP_temperature;BMP_pressure;BME280_temperature;BME280_humidity;BME280_pressure;Samples;Min_cycle;Max_cycle;Signal;HPM_P1;HPM_P2
2021/10/11 00:02:15;;;;;;;37.33;19.60;;;10.60;77.00;;;;;;5085064;28;20028;-78
2021/10/11 00:04:41;;;;;;;32.80;18.17;;;10.60;77.10;;;;;;5084521;28;20028;-78
2021/10/11 00:07:08;;;;;;;33.58;20.13;;;10.50;77.40;;;;;;5078999;28;20032;-78
2021/10/11 00:09:35;;;;;;;37.25;20.10;;;10.60;77.70;;;;;;5079167;28;20025;-78
2021/10/11 00:12:01;;;;;;;33.53;19.48;;;10.60;77.80;;;;;;5083202;28;20039;-78
2021/10/11 00:14:27;;;;;;;34.53;19.25;;;10.70;78.20;;;;;;5079224;28;20072;-78
2021/10/11 00:16:53;;;;;;;32.28;18.90;;;10.70;78.10;;;;;;5088834;28;20024;-78
2021/10/11 00:19:19;;;;;;;36.05;20.08;;;10.70;78.10;;;;;;5092841;28;20016;-78
2021/10/11 00:21:45;;;;;;;30.17;18.63;;;10.80;78.40;;;;;;5088048;28;20085;-78
2021/10/11 00:24:11;;;;;;;32.00;18.10;;;10.80;78.40;;;;;;5079834;28;20542;-78
2021/10/11 00:26:37;;;;;;;31.95;19.23;;;10.80;78.50;;;;;;5079059;28;20131;-78
2021/10/11 00:29:03;;;;;;;30.50;16.63;;;10.80;78.60;;;;;;5078120;28;20032;-78
2021/10/11 00:31:29;;;;;;;30.42;18.17;;;10.80;78.30;;;;;;5082027;28;20035;-78
2021/10/11 00:33:56;;;;;;;27.83;15.60;;;10.70;78.20;;;;;;5091105;28;20024;-78
2021/10/11 00:36:23;;;;;;;29.75;15.35;;;10.70;78.00;;;;;;5083721;28;20110;-78
2021/10/11 00:38:49;;;;;;;24.38;14.88;;;10.70;78.10;;;;;;5078903;28;20441;-78
2021/10/11 00:41:15;;;;;;;24.58;14.50;;;10.60;78.10;;;;;;5080268;28;20085;-78
2021/10/11 00:43:41;;;;;;;28.20;16.10;;;10.60;78.20;;;;;;5078617;28;20100;-78
2021/10/11 00:46:08;;;;;;;24.80;15.38;;;10.60;78.20;;;;;;5081443;28;20028;-78
2021/10/11 00:48:35;;;;;;;24.45;14.63;;;10.60;78.30;;;;;;5085680;28;20028;-78
2021/10/11 00:51:03;;;;;;;24.95;14.45;;;10.50;78.20;;;;;;5088442;28;20479;-78
2021/10/11 00:53:29;;;;;;;25.67;14.52;;;10.50;78.20;;;;;;5078470;28;20044;-78
2021/10/11 00:55:55;;;;;;;25.77;15.50;;;10.60;78.30;;;;;;5083872;28;20395;-78
2021/10/11 00:58:21;;;;;;;24.80;14.80;;;10.60;78.40;;;;;;5080561;28;20028;-78
2021/10/11 01:00:47;;;;;;;24.80;14.52;;;10.60;78.40;;;;;;5091558;28;20402;-78
2021/10/11 01:03:13;;;;;;;23.67;14.73;;;10.70;78.70;;;;;;5095637;28;20070;-78
2021/10/11 01:05:39;;;;;;;29.00;17.02;;;10.80;78.80;;;;;;5091454;28;20398;-78
2021/10/11 01:08:05;;;;;;;27.67;16.15;;;10.80;79.00;;;;;;5078213;28;20107;-78
2021/10/11 01:10:31;;;;;;;27.08;15.80;;;10.90;78.80;;;;;;5078075;28;20032;-78
2021/10/11 01:12:56;;;;;;;26.65;15.82;;;10.90;79.00;;;;;;5077861;28;20036;-78
2021/10/11 01:15:23;;;;;;;26.42;14.88;;;11.00;79.00;;;;;;5079002;28;20024;-78
2021/10/11 01:17:48;;;;;;;26.83;15.20;;;11.00;79.00;;;;;;5084443;28;20025;-78
2021/10/11 01:20:14;;;;;;;23.65;14.82;;;11.10;78.90;;;;;;5077865;28;20024;-78
2021/10/11 01:22:43;;;;;;;29.35;16.70;;;11.10;78.80;;;;;;5077623;28;20032;-79
2021/10/11 01:25:11;;;;;;;28.02;16.02;;;11.10;79.10;;;;;;5077755;28;20024;-78
2021/10/11 01:27:37;;;;;;;29.10;17.02;;;11.20;79.00;;;;;;5079067;28;20032;-78
2021/10/11 01:30:05;;;;;;;29.40;16.48;;;11.20;79.10;;;;;;5088741;28;20048;-78
2021/10/11 01:32:31;;;;;;;29.02;16.55;;;11.30;79.10;;;;;;5087833;28;20027;-78
2021/10/11 01:34:57;;;;;;;28.08;16.27;;;11.30;79.00;;;;;;5082756;28;20387;-78
2021/10/11 01:37:23;;;;;;;25.45;16.05;;;11.30;79.00;;;;;;5076063;28;20463;-78
2021/10/11 01:39:49;;;;;;;29.08;16.30;;;11.40;79.30;;;;;;5077598;28;20066;-78
2021/10/11 01:42:14;;;;;;;28.08;15.95;;;11.40;79.30;;;;;;5077402;28;20415;-78
2021/10/11 01:44:41;;;;;;;28.65;15.98;;;11.50;79.30;;;;;;5077123;28;20025;-78
2021/10/11 01:47:06;;;;;;;31.80;17.75;;;11.50;79.30;;;;;;5077331;28;20043;-78
2021/10/11 01:49:32;;;;;;;29.60;16.35;;;11.50;79.10;;;;;;5080453;28;20571;-78
2021/10/11 01:51:58;;;;;;;27.17;16.05;;;11.50;79.30;;;;;;5076734;28;20107;-78
2021/10/11 01:54:24;;;;;;;26.67;15.90;;;11.50;79.10;;;;;;5077069;28;20025;-78
2021/10/11 01:56:50;;;;;;;28.05;16.02;;;11.60;79.20;;;;;;5078510;28;20025;-78
2021/10/11 01:59:16;;;;;;;28.52;17.27;;;11.60;79.30;;;;;;5075959;28;20395;-78
2021/10/11 02:01:41;;;;;;;28.08;16.27;;;11.60;79.50;;;;;;5083868;28;20035;-78
2021/10/11 02:04:07;;;;;;;26.75;15.65;;;11.60;79.30;;;;;;5088919;28;20103;-78
2021/10/11 02:06:33;;;;;;;25.08;16.02;;;11.60;79.20;;;;;;5087370;28;20025;-78
2021/10/11 02:08:59;;;;;;;27.70;15.57;;;11.70;79.20;;;;;;5077188;28;20020;-78
2021/10/11 02:11:25;;;;;;;27.77;16.10;;;11.70;79.20;;;;;;5079630;28;20544;-78
2021/10/11 02:13:51;;;;;;;29.73;16.77;;;11.70;79.30;;;;;;5084347;28;20019;-78
2021/10/11 02:16:16;;;;;;;30.20;17.45;;;11.80;79.30;;;;;;5084202;28;20051;-78
2021/10/11 02:18:42;;;;;;;30.13;15.55;;;11.80;79.20;;;;;;5088465;28;20020;-78
2021/10/11 02:21:09;;;;;;;30.42;17.48;;;11.80;79.30;;;;;;5083973;28;20019;-78
2021/10/11 02:23:34;;;;;;;30.15;17.58;;;11.80;80.20;;;;;;5083140;28;20024;-78
2021/10/11 02:26:00;;;;;;;29.70;16.65;;;11.80;79.70;;;;;;5076949;28;20395;-78
2021/10/11 02:28:26;;;;;;;36.55;19.63;;;11.80;79.60;;;;;;5077436;28;20518;-78
2021/10/11 02:30:52;;;;;;;30.98;17.50;;;11.90;80.50;;;;;;5077241;28;20028;-78
2021/10/11 02:33:18;;;;;;;30.90;18.13;;;11.90;80.10;;;;;;5091325;28;20028;-78
2021/10/11 02:35:44;;;;;;;34.90;19.75;;;11.90;80.70;;;;;;5076510;28;20495;-78
2021/10/11 02:38:10;;;;;;;33.53;18.55;;;11.90;80.80;;;;;;5076820;28;20025;-78
2021/10/11 02:40:36;;;;;;;32.58;18.00;;;11.90;80.20;;;;;;5076876;28;20029;-78
2021/10/11 02:43:02;;;;;;;31.13;17.58;;;11.90;80.20;;;;;;5078199;28;20025;-78
2021/10/11 02:45:28;;;;;;;31.40;17.52;;;11.90;80.00;;;;;;5077037;28;20107;-78
2021/10/11 02:47:54;;;;;;;30.65;16.88;;;12.00;79.90;;;;;;5078465;28;20032;-78
2021/10/11 02:50:20;;;;;;;29.27;17.10;;;12.00;79.90;;;;;;5091598;28;20114;-78
2021/10/11 02:52:47;;;;;;;28.33;16.58;;;12.00;79.80;;;;;;5080362;28;20051;-78
2021/10/11 02:55:13;;;;;;;27.02;16.17;;;12.00;80.00;;;;;;5080717;28;20024;-78
2021/10/11 02:57:39;;;;;;;28.67;16.58;;;12.00;79.90;;;;;;5081511;28;20059;-78
2021/10/11 03:00:06;;;;;;;30.13;15.93;;;12.00;79.60;;;;;;5084797;28;20052;-78
2021/10/11 03:02:32;;;;;;;30.45;16.05;;;12.00;79.50;;;;;;5094419;28;20024;-78
2021/10/11 03:04:58;;;;;;;27.00;15.77;;;12.00;79.40;;;;;;5092840;28;20020;-78
2021/10/11 03:07:24;;;;;;;30.58;17.20;;;12.00;79.60;;;;;;5084038;28;20087;-78
2021/10/11 03:09:49;;;;;;;30.10;17.40;;;11.90;79.40;;;;;;5080437;28;20035;-78
2021/10/11 03:12:15;;;;;;;31.20;16.52;;;12.00;79.70;;;;;;5079950;28;20491;-78
2021/10/11 03:14:41;;;;;;;28.10;16.10;;;11.90;79.80;;;;;;5085364;28;20402;-78
2021/10/11 03:17:07;;;;;;;31.33;15.70;;;11.90;79.50;;;;;;5097174;28;20028;-78
2021/10/11 03:19:33;;;;;;;30.27;16.88;;;12.00;79.40;;;;;;5092473;28;20031;-78
2021/10/11 03:21:59;;;;;;;30.27;17.25;;;11.90;79.40;;;;;;5093394;28;20020;-78
2021/10/11 03:24:24;;;;;;;27.65;16.23;;;12.00;79.30;;;;;;5079968;28;20066;-78
2021/10/11 03:26:50;;;;;;;26.58;15.85;;;12.00;79.40;;;;;;5080181;28;20031;-78
2021/10/11 03:29:17;;;;;;;26.77;15.25;;;12.00;79.50;;;;;;5089798;28;20024;-78
2021/10/11 03:31:43;;;;;;;33.92;17.23;;;12.00;79.50;;;;;;5084383;28;20062;-78
2021/10/11 03:34:11;;;;;;;27.05;15.38;;;12.00;79.60;;;;;;5089753;28;20112;-78
2021/10/11 03:36:38;;;;;;;29.42;16.00;;;12.00;79.60;;;;;;5077544;28;20037;-78
2021/10/11 03:39:05;;;;;;;28.05;15.82;;;12.10;79.30;;;;;;5088889;28;20027;-78
2021/10/11 03:41:33;;;;;;;27.45;15.48;;;12.10;79.20;;;;;;5079662;28;20028;-78
2021/10/11 03:43:59;;;;;;;32.22;17.05;;;12.10;79.40;;;;;;5079766;28;20020;-78
2021/10/11 03:46:25;;;;;;;27.13;15.27;;;12.10;79.70;;;;;;5081893;28;20042;-78
2021/10/11 03:48:51;;;;;;;28.85;16.30;;;12.10;79.40;;;;;;5087942;28;20551;-78
2021/10/11 03:51:21;;;;;;;30.63;16.10;;;12.10;79.60;;;;;;5082947;28;20028;-78
2021/10/11 03:53:47;;;;;;;26.17;14.95;;;12.10;79.60;;;;;;5079600;28;20055;-78
2021/10/11 03:56:13;;;;;;;27.92;15.90;;;12.10;79.50;;;;;;5079638;28;20016;-78
2021/10/11 03:58:39;;;;;;;29.95;15.95;;;12.10;79.60;;;;;;5081700;28;20088;-78
2021/10/11 04:01:05;;;;;;;25.20;15.40;;;12.10;79.80;;;;;;5081331;28;20115;-78
2021/10/11 04:03:32;;;;;;;28.30;14.95;;;12.10;79.60;;;;;;5084844;28;20029;-78
2021/10/11 04:05:58;;;;;;;27.67;15.60;;;12.10;79.20;;;;;;5079090;28;20029;-78
2021/10/11 04:08:32;;;;;;;27.67;14.77;;;12.10;79.60;;;;;;5079466;28;20082;-78
2021/10/11 04:11:04;;;;;;;29.15;15.80;;;12.10;79.80;;;;;;5078972;28;20522;-78
2021/10/11 04:13:30;;;;;;;29.25;16.52;;;12.10;79.80;;;;;;5085507;28;20094;-78
2021/10/11 04:15:56;;;;;;;33.13;16.65;;;12.10;80.00;;;;;;5084765;28;20530;-78
2021/10/11 04:18:22;;;;;;;31.60;16.67;;;12.10;80.00;;;;;;5084136;28;20015;-78
2021/10/11 04:20:48;;;;;;;29.20;15.45;;;12.10;80.00;;;;;;5081435;28;20549;-78
2021/10/11 04:23:14;;;;;;;29.27;17.30;;;12.10;79.90;;;;;;5088169;28;20020;-78
2021/10/11 04:25:40;;;;;;;28.27;17.33;;;12.10;80.10;;;;;;5079710;28;20025;-78
2021/10/11 04:28:08;;;;;;;33.45;17.25;;;12.20;80.10;;;;;;5078718;28;20052;-78
2021/10/11 04:30:34;;;;;;;31.02;16.95;;;12.20;80.30;;;;;;5078669;28;20028;-78
2021/10/11 04:33:00;;;;;;;32.20;17.00;;;12.20;80.20;;;;;;5093195;28;20024;-78
2021/10/11 04:35:27;;;;;;;32.03;17.33;;;12.20;80.10;;;;;;5084890;28;20049;-78
2021/10/11 04:37:52;;;;;;;31.08;16.63;;;12.20;80.10;;;;;;5078882;28;20135;-77
2021/10/11 04:40:20;;;;;;;31.42;16.85;;;12.20;80.20;;;;;;5078540;28;20056;-78
2021/10/11 04:42:46;;;;;;;33.72;18.52;;;12.20;80.20;;;;;;5079446;28;20048;-78
2021/10/11 04:45:12;;;;;;;32.85;18.80;;;12.30;80.80;;;;;;5078506;28;20051;-78
2021/10/11 04:47:38;;;;;;;31.33;19.10;;;12.30;80.60;;;;;;5078454;28;20024;-78
2021/10/11 04:50:05;;;;;;;35.47;19.40;;;12.30;80.80;;;;;;5092279;28;20064;-78
2021/10/11 04:52:31;;;;;;;32.00;19.85;;;12.30;81.90;;;;;;5078259;28;20021;-78
2021/10/11 04:54:57;;;;;;;32.95;17.60;;;12.30;82.00;;;;;;5078579;28;20031;-78
2021/10/11 04:57:23;;;;;;;33.00;18.33;;;12.30;81.00;;;;;;5086294;28;20047;-78
2021/10/11 04:59:49;;;;;;;33.53;17.75;;;12.20;80.50;;;;;;5079373;28;20035;-78
2021/10/11 05:02:15;;;;;;;33.35;17.60;;;12.10;80.10;;;;;;5087204;28;20062;-77
2021/10/11 05:04:41;;;;;;;30.33;17.35;;;12.10;80.20;;;;;;5078110;28;20639;-74
2021/10/11 05:07:07;;;;;;;32.38;17.52;;;12.00;80.00;;;;;;5077779;28;20111;-78
2021/10/11 05:09:33;;;;;;;31.52;16.92;;;11.90;79.80;;;;;;5079087;28;20059;-74
2021/10/11 05:11:59;;;;;;;34.50;18.10;;;11.80;80.00;;;;;;5089922;28;20024;-80
2021/10/11 05:14:25;;;;;;;33.85;19.73;;;11.70;80.50;;;;;;5091265;28;20071;-80
2021/10/11 05:16:53;;;;;;;30.92;17.83;;;11.70;80.50;;;;;;5090964;28;20020;-78
2021/10/11 05:19:24;;;;;;;33.10;18.08;;;11.60;80.50;;;;;;5092423;28;20046;-78
2021/10/11 05:21:51;;;;;;;30.70;17.27;;;11.60;80.60;;;;;;5089341;28;20020;-80
2021/10/11 05:24:17;;;;;;;30.05;17.10;;;11.50;80.60;;;;;;5079838;28;20040;-80
2021/10/11 05:26:43;;;;;;;37.58;19.67;;;11.50;80.50;;;;;;5078920;28;20028;-79
2021/10/11 05:29:09;;;;;;;51.97;26.40;;;11.50;80.80;;;;;;5077832;28;20035;-81
2021/10/11 05:31:37;;;;;;;57.42;29.15;;;11.50;84.20;;;;;;5076237;28;20028;-79
2021/10/11 05:34:03;;;;;;;61.42;31.17;;;11.60;87.30;;;;;;5097549;28;20024;-79
2021/10/11 05:36:29;;;;;;;76.07;31.65;;;11.60;88.20;;;;;;5084270;28;20040;-82
2021/10/11 05:38:55;;;;;;;56.33;27.75;;;11.70;88.90;;;;;;5077514;28;20032;-80
2021/10/11 05:41:21;;;;;;;51.40;24.00;;;11.70;87.50;;;;;;5077446;28;20020;-82
2021/10/11 05:43:47;;;;;;;48.63;24.55;;;11.70;86.10;;;;;;5079595;28;20057;-80
2021/10/11 05:46:12;;;;;;;58.30;26.20;;;11.80;85.50;;;;;;5078239;28;20063;-82
2021/10/11 05:48:38;;;;;;;53.35;24.95;;;11.80;85.50;;;;;;5085447;28;20154;-80
2021/10/11 05:51:04;;;;;;;47.70;22.75;;;11.90;85.00;;;;;;5082230;28;20091;-80
2021/10/11 05:53:30;;;;;;;63.03;27.77;;;12.00;84.40;;;;;;5077826;28;20395;-80
2021/10/11 05:55:56;;;;;;;59.35;25.42;;;12.00;87.60;;;;;;5089686;28;20024;-81
2021/10/11 05:58:22;;;;;;;62.92;25.10;;;12.10;86.60;;;;;;5076537;28;20032;-81
2021/10/11 06:00:48;;;;;;;62.30;28.65;;;12.10;85.60;;;;;;5084380;28;20103;-80
2021/10/11 06:03:14;;;;;;;67.28;29.05;;;12.20;87.00;;;;;;5079623;28;20031;-80
2021/10/11 06:05:39;;;;;;;80.88;32.63;;;12.20;87.40;;;;;;5091545;28;20491;-80
2021/10/11 06:08:05;;;;;;;77.95;33.22;;;12.30;90.20;;;;;;5089362;28;20035;-80
2021/10/11 06:10:31;;;;;;;79.65;30.20;;;12.30;90.90;;;;;;5082430;28;20028;-80
2021/10/11 06:12:57;;;;;;;80.72;32.60;;;12.40;91.20;;;;;;5096198;28;20036;-80
2021/10/11 06:15:23;;;;;;;79.03;32.42;;;12.40;91.50;;;;;;5082432;28;20092;-80
2021/10/11 06:17:49;;;;;;;63.65;28.92;;;12.40;91.50;;;;;;5094968;28;20107;-81
2021/10/11 06:20:14;;;;;;;64.13;27.42;;;12.40;91.20;;;;;;5090297;28;20027;-84
2021/10/11 06:22:40;;;;;;;57.55;24.05;;;12.40;90.10;;;;;;5077141;28;20066;-82
2021/10/11 06:25:07;;;;;;;59.95;24.60;;;12.40;89.00;;;;;;5079518;28;20509;-82
2021/10/11 06:27:33;;;;;;;71.75;27.48;;;12.50;89.00;;;;;;5081449;28;20056;-81
2021/10/11 06:30:00;;;;;;;59.17;26.95;;;12.50;90.00;;;;;;5081285;28;20025;-82
2021/10/11 06:32:25;;;;;;;64.25;25.90;;;12.50;90.00;;;;;;5091522;28;20025;-82
2021/10/11 06:34:51;;;;;;;56.35;25.58;;;12.50;89.50;;;;;;5084712;28;20038;-82
2021/10/11 06:37:17;;;;;;;59.97;25.90;;;12.50;90.00;;;;;;5091209;28;20528;-82
2021/10/11 06:39:43;;;;;;;56.30;24.65;;;12.50;89.40;;;;;;5089182;28;20032;-82
2021/10/11 06:42:09;;;;;;;55.85;24.35;;;12.60;90.20;;;;;;5084989;28;20025;-82
2021/10/11 06:44:35;;;;;;;51.15;22.45;;;12.60;90.20;;;;;;5080908;28;20021;-80
2021/10/11 06:47:01;;;;;;;52.47;23.10;;;12.60;90.00;;;;;;5081076;28;20020;-82
2021/10/11 06:49:27;;;;;;;54.15;22.42;;;12.70;89.20;;;;;;5095172;28;20502;-83
2021/10/11 06:51:53;;;;;;;47.42;21.13;;;12.70;89.90;;;;;;5080824;28;20110;-81
2021/10/11 06:54:19;;;;;;;41.92;19.17;;;12.70;89.80;;;;;;5080589;28;20116;-83
2021/10/11 06:56:44;;;;;;;41.58;19.58;;;12.70;89.00;;;;;;5080850;28;20045;-84
2021/10/11 06:59:10;;;;;;;40.20;18.75;;;12.80;89.80;;;;;;5080943;28;20027;-83
2021/10/11 07:01:36;;;;;;;43.30;18.63;;;12.80;90.30;;;;;;5087343;28;20020;-83
2021/10/11 07:04:03;;;;;;;38.05;17.40;;;12.80;89.80;;;;;;5092007;28;20090;-83
2021/10/11 07:06:29;;;;;;;37.90;17.35;;;12.80;89.10;;;;;;5093492;28;20023;-83
2021/10/11 07:08:54;;;;;;;34.05;16.33;;;12.90;89.80;;;;;;5080347;28;20025;-83
2021/10/11 07:11:20;;;;;;;34.83;16.48;;;12.90;90.10;;;;;;5080655;28;20039;-84
2021/10/11 07:13:46;;;;;;;32.85;16.67;;;12.90;89.20;;;;;;5088205;28;20039;-83
2021/10/11 07:16:12;;;;;;;34.53;16.25;;;13.00;89.10;;;;;;5098466;28;20087;-84
2021/10/11 07:18:38;;;;;;;34.47;16.83;;;13.00;88.40;;;;;;5095195;28;20035;-83
2021/10/11 07:21:06;;;;;;;34.08;17.15;;;13.00;88.70;;;;;;5089233;28;20016;-83
2021/10/11 07:23:33;;;;;;;34.15;15.98;;;13.10;89.80;;;;;;5100172;28;20110;-83
2021/10/11 07:26:01;;;;;;;34.38;16.55;;;13.10;88.80;;;;;;5100550;28;20058;-83
2021/10/11 07:28:27;;;;;;;32.40;15.73;;;13.10;89.30;;;;;;5097829;28;20036;-82
2021/10/11 07:30:54;;;;;;;30.92;15.77;;;13.20;89.50;;;;;;5092883;28;20471;-83
2021/10/11 07:33:21;;;;;;;29.92;15.75;;;13.20;89.10;;;;;;5093953;28;20043;-83
2021/10/11 07:35:48;;;;;;;29.58;15.13;;;13.20;89.10;;;;;;5091329;28;20410;-83
2021/10/11 07:38:14;;;;;;;27.52;14.43;;;13.20;88.80;;;;;;5079878;28;20024;-83
2021/10/11 07:40:40;;;;;;;28.85;14.55;;;13.20;88.60;;;;;;5080018;28;20024;-83
2021/10/11 07:43:05;;;;;;;29.55;14.55;;;13.20;88.20;;;;;;5079721;28;20414;-83
2021/10/11 07:45:31;;;;;;;25.83;13.45;;;13.20;88.00;;;;;;5080018;28;20107;-83
2021/10/11 07:47:57;;;;;;;29.88;15.02;;;13.30;87.90;;;;;;5081852;28;20029;-83
2021/10/11 07:50:23;;;;;;;30.30;13.52;;;13.30;88.20;;;;;;5089911;28;20050;-83
2021/10/11 07:52:49;;;;;;;31.42;15.77;;;13.30;87.60;;;;;;5079507;28;20054;-83
2021/10/11 07:55:15;;;;;;;28.05;14.65;;;13.30;88.10;;;;;;5079779;28;20549;-83
2021/10/11 07:57:42;;;;;;;31.77;14.77;;;13.40;88.00;;;;;;5078201;28;20475;-83
2021/10/11 08:00:10;;;;;;;29.00;14.43;;;13.40;87.60;;;;;;5079424;28;20094;-83
2021/10/11 08:02:36;;;;;;;31.85;15.25;;;13.50;87.90;;;;;;5094434;28;20024;-83
2021/10/11 08:05:03;;;;;;;36.78;18.55;;;13.50;88.30;;;;;;5092029;28;20031;-83
2021/10/11 08:07:29;;;;;;;33.15;15.55;;;13.60;90.30;;;;;;5082763;28;20024;-83
2021/10/11 08:09:55;;;;;;;34.10;15.75;;;13.60;90.00;;;;;;5079378;28;20104;-83
2021/10/11 08:12:20;;;;;;;37.17;16.60;;;13.70;89.90;;;;;;5079171;28;20025;-83
2021/10/11 08:14:46;;;;;;;33.60;15.77;;;13.70;89.10;;;;;;5079319;28;20013;-83
2021/10/11 08:17:13;;;;;;;31.30;15.05;;;13.80;90.00;;;;;;5094286;28;20474;-83
2021/10/11 08:19:39;;;;;;;32.55;15.00;;;13.90;89.90;;;;;;5090983;28;20044;-83
2021/10/11 08:22:05;;;;;;;34.58;16.25;;;14.00;89.60;;;;;;5092372;28;20024;-83
2021/10/11 08:24:31;;;;;;;33.22;16.15;;;14.10;90.00;;;;;;5079193;28;20012;-83
2021/10/11 08:26:57;;;;;;;29.85;15.13;;;14.30;89.70;;;;;;5078912;28;20476;-83
2021/10/11 08:29:22;;;;;;;30.73;14.80;;;14.50;89.70;;;;;;5079138;28;20028;-83
2021/10/11 08:31:48;;;;;;;29.63;15.00;;;14.60;89.20;;;;;;5080212;28;20103;-83
2021/10/11 08:34:14;;;;;;;26.77;14.68;;;14.60;89.00;;;;;;5099173;28;20391;-83
2021/10/11 08:36:40;;;;;;;30.27;15.57;;;14.70;88.90;;;;;;5083401;28;20072;-83
2021/10/11 08:39:06;;;;;;;33.10;16.63;;;14.70;88.60;;;;;;5078661;28;20044;-83
2021/10/11 08:41:32;;;;;;;30.27;14.85;;;14.80;88.30;;;;;;5078902;28;20027;-84
2021/10/11 08:43:58;;;;;;;31.30;14.98;;;14.80;88.10;;;;;;5077852;28;20070;-85
2021/10/11 08:46:24;;;;;;;32.30;15.85;;;14.90;88.30;;;;;;5086476;28;20082;-84
2021/10/11 08:48:50;;;;;;;27.58;14.52;;;15.00;88.90;;;;;;5090917;28;20029;-84
2021/10/11 08:51:16;;;;;;;28.75;14.55;;;15.20;89.20;;;;;;5098424;28;20028;-84
2021/10/11 08:53:42;;;;;;;26.35;13.52;;;15.40;89.20;;;;;;5096134;28;20028;-84
2021/10/11 08:56:13;;;;;;;29.70;14.13;;;15.60;88.80;;;;;;5098551;28;20024;-83
2021/10/11 08:58:47;;;;;;;31.70;15.48;;;15.90;88.50;;;;;;5098898;28;20020;-84
2021/10/11 09:01:13;;;;;;;25.10;14.38;;;16.20;87.90;;;;;;5098354;28;20024;-85
2021/10/11 09:03:40;;;;;;;23.33;12.85;;;16.40;87.20;;;;;;5096431;28;20105;-85
2021/10/11 09:06:10;;;;;;;23.23;13.38;;;16.60;86.70;;;;;;5098187;28;20115;-86
2021/10/11 09:08:37;;;;;;;22.88;12.73;;;16.90;86.40;;;;;;5098371;28;20028;-85
2021/10/11 09:11:07;;;;;;;22.45;12.88;;;17.20;87.20;;;;;;5098289;28;20090;-85
2021/10/11 09:13:44;;;;;;;21.05;11.40;;;17.80;87.30;;;;;;5096991;28;20024;-85
2021/10/11 09:16:30;;;;;;;20.08;11.85;;;18.20;84.70;;;;;;5096524;28;20411;-84
2021/10/11 09:19:11;;;;;;;21.42;12.02;;;18.50;81.90;;;;;;5086959;28;20068;-86
2021/10/11 09:21:38;;;;;;;18.35;11.07;;;18.60;79.70;;;;;;5084895;28;20028;-85
2021/10/11 09:24:10;;;;;;;23.08;11.68;;;18.40;79.50;;;;;;5097819;28;20016;-85
2021/10/11 09:26:48;;;;;;;20.25;11.50;;;18.30;79.40;;;;;;5098207;28;20031;-85
2021/10/11 09:29:26;;;;;;;20.67;11.20;;;18.30;78.80;;;;;;5094435;28;20066;-85
2021/10/11 09:31:52;;;;;;;17.80;10.82;;;18.20;79.00;;;;;;5096487;28;20024;-85
2021/10/11 09:34:21;;;;;;;18.73;10.27;;;18.20;79.10;;;;;;5097867;28;20537;-85
2021/10/11 09:37:05;;;;;;;18.75;10.98;;;18.20;80.20;;;;;;5097482;28;20048;-85
2021/10/11 09:39:33;;;;;;;20.25;11.15;;;18.40;80.00;;;;;;5097896;28;20081;-86
2021/10/11 09:42:02;;;;;;;20.15;10.75;;;18.80;79.70;;;;;;5087874;28;20487;-85
2021/10/11 09:44:28;;;;;;;18.38;10.68;;;19.30;79.40;;;;;;5094696;28;20086;-85
2021/10/11 09:46:57;;;;;;;17.77;10.18;;;19.60;78.30;;;;;;5097293;28;20028;-80
2021/10/11 09:49:26;;;;;;;18.55;10.10;;;19.90;76.60;;;;;;5096832;28;20510;-82
2021/10/11 09:51:54;;;;;;;17.45;8.80;;;20.20;74.80;;;;;;5087318;28;20028;-86
2021/10/11 09:54:21;;;;;;;14.88;8.23;;;20.20;74.50;;;;;;5095086;28;20027;-86
2021/10/11 09:56:48;;;;;;;18.90;9.00;;;20.10;73.80;;;;;;5096389;28;20028;-87
2021/10/11 09:59:16;;;;;;;16.20;9.25;;;20.20;72.30;;;;;;5097329;28;20016;-86
2021/10/11 10:01:42;;;;;;;18.35;8.50;;;20.20;71.60;;;;;;5090226;28;20020;-86
2021/10/11 10:04:16;;;;;;;14.82;8.38;;;20.30;71.90;;;;;;5089682;28;20020;-86
2021/10/11 10:06:44;;;;;;;15.18;9.05;;;20.30;71.10;;;;;;5097354;28;20034;-86
2021/10/11 10:09:11;;;;;;;14.18;8.40;;;20.30;70.70;;;;;;5097254;28;20023;-87
2021/10/11 10:11:37;;;;;;;14.30;7.82;;;20.40;72.30;;;;;;5097538;28;20149;-87
2021/10/11 10:14:04;;;;;;;14.90;8.85;;;20.80;73.70;;;;;;5094910;28;20059;-87
2021/10/11 10:16:31;;;;;;;15.13;7.68;;;21.40;74.00;;;;;;5090305;28;20020;-87
2021/10/11 10:19:08;;;;;;;14.32;7.72;;;22.10;74.10;;;;;;5096845;28;20384;-87
2021/10/11 10:21:34;;;;;;;14.38;6.90;;;22.80;73.60;;;;;;5092047;28;20042;-87
2021/10/11 10:24:00;;;;;;;15.45;7.07;;;23.50;69.90;;;;;;5097178;28;20103;-87
2021/10/11 10:26:34;;;;;;;11.80;6.20;;;23.90;69.90;;;;;;5083823;28;20435;-87
2021/10/11 10:29:19;;;;;;;12.00;5.97;;;24.40;66.60;;;;;;5096969;28;20024;-87
2021/10/11 10:31:46;;;;;;;13.30;6.05;;;24.40;65.50;;;;;;5097057;28;20031;-87
2021/10/11 10:34:17;;;;;;;11.30;6.43;;;24.10;64.30;;;;;;5095916;28;20024;-87
2021/10/11 10:36:44;;;;;;;12.35;6.60;;;23.90;64.40;;;;;;5096954;28;20052;-86
2021/10/11 10:39:15;;;;;;;15.13;6.93;;;23.60;65.30;;;;;;5097044;28;20462;-87
2021/10/11 10:41:54;;;;;;;12.98;5.93;;;23.70;66.40;;;;;;5098100;28;20054;-84
2021/10/11 10:44:21;;;;;;;10.98;6.25;;;23.90;65.10;;;;;;5100039;28;20507;-84
2021/10/11 10:46:54;;;;;;;13.27;6.20;;;23.80;64.20;;;;;;5085662;28;20027;-84
2021/10/11 10:49:38;;;;;;;13.27;6.05;;;23.50;63.40;;;;;;5096199;28;20031;-83
2021/10/11 10:52:20;;;;;;;13.30;5.88;;;23.20;62.60;;;;;;5096328;28;20095;-83
2021/10/11 10:54:53;;;;;;;13.02;5.57;;;23.10;63.30;;;;;;5095358;28;20020;-83
2021/10/11 10:57:26;;;;;;;11.65;4.80;;;23.10;64.30;;;;;;5097051;28;20070;-84
2021/10/11 10:59:54;;;;;;;9.40;4.68;;;23.20;63.60;;;;;;5086297;28;20493;-84
2021/10/11 11:02:20;;;;;;;14.77;4.72;;;23.40;63.10;;;;;;5087436;28;20061;-83
2021/10/11 11:04:58;;;;;;;8.80;3.83;;;23.80;62.50;;;;;;5091897;28;20115;-84
2021/10/11 11:07:32;;;;;;;11.40;4.63;;;24.20;62.80;;;;;;5096847;28;20066;-82
2021/10/11 11:10:00;;;;;;;10.63;3.80;;;24.70;60.90;;;;;;5094112;28;20032;-85
2021/10/11 11:12:35;;;;;;;9.77;3.65;;;25.00;61.10;;;;;;5096046;28;20111;-84
2021/10/11 11:15:04;;;;;;;10.98;4.65;;;25.50;61.10;;;;;;5098669;28;20024;-85
2021/10/11 11:17:32;;;;;;;9.65;4.15;;;25.70;59.50;;;;;;5099120;28;20022;-85
2021/10/11 11:19:58;;;;;;;10.13;3.10;;;26.10;59.20;;;;;;5093552;28;20031;-84
2021/10/11 11:22:30;;;;;;;9.27;3.20;;;26.20;58.30;;;;;;5098885;28;20115;-83
2021/10/11 11:25:04;;;;;;;6.60;3.05;;;26.50;58.30;;;;;;5100404;28;20028;-83
2021/10/11 11:27:36;;;;;;;10.77;3.58;;;26.70;58.50;;;;;;5100219;28;20032;-83
2021/10/11 11:30:06;;;;;;;;;;;26.90;58.90;;;;;;5100326;28;20027;-82
2021/10/11 11:32:50;;;;;;;9.52;3.72;;;27.10;58.80;;;;;;5100131;28;19908;-83
2021/10/11 11:35:20;;;;;;;8.75;3.58;;;27.20;57.80;;;;;;5096606;28;20027;-83
2021/10/11 11:37:51;;;;;;;8.50;3.80;;;27.20;58.30;;;;;;5098973;28;20475;-83
2021/10/11 11:40:19;;;;;;;8.20;3.53;;;27.20;55.60;;;;;;5100325;28;20525;-83
2021/10/11 11:42:47;;;;;;;10.02;3.50;;;27.00;55.30;;;;;;5099899;28;20115;-83
2021/10/11 11:45:14;;;;;;;10.00;2.92;;;26.80;55.40;;;;;;5099131;28;20020;-83
2021/10/11 11:47:40;;;;;;;9.60;3.13;;;26.80;55.70;;;;;;5099218;28;20051;-82
2021/10/11 11:50:24;;;;;;;12.43;3.10;;;26.70;54.80;;;;;;5099298;28;20027;-83
2021/10/11 11:53:06;;;;;;;9.15;3.33;;;26.60;55.80;;;;;;5096882;28;20028;-83
2021/10/11 11:55:33;;;;;;;13.90;3.63;;;26.50;55.00;;;;;;5099771;28;20039;-83
2021/10/11 11:57:59;;;;;;;10.30;4.25;;;26.40;55.30;;;;;;5099532;28;20020;-82
2021/10/11 12:00:30;;;;;;;7.45;3.33;;;26.40;56.40;;;;;;5099460;28;20020;-82
2021/10/11 12:02:57;;;;;;;10.23;3.40;;;26.30;55.80;;;;;;5088120;28;20027;-82
2021/10/11 12:05:24;;;;;;;12.05;3.30;;;26.00;54.60;;;;;;5093736;28;20028;-82
2021/10/11 12:07:50;;;;;;;12.20;4.30;;;25.70;54.10;;;;;;5098079;28;20027;-82
2021/10/11 12:10:22;;;;;;;12.40;3.47;;;25.50;53.40;;;;;;5099296;28;20046;-82
2021/10/11 12:13:00;;;;;;;13.40;3.88;;;25.50;54.90;;;;;;5102469;28;20019;-82
2021/10/11 12:15:27;;;;;;;10.93;3.22;;;25.50;54.90;;;;;;5091706;28;20034;-82
2021/10/11 12:18:19;;;;;;;11.23;3.45;;;25.50;54.40;;;;;;5098074;28;20047;-83
2021/10/11 12:20:47;;;;;;;8.95;2.67;;;25.40;54.40;;;;;;5085124;28;20071;-82
2021/10/11 12:23:15;;;;;;;11.10;3.13;;;25.40;54.20;;;;;;5098243;28;20028;-82
2021/10/11 12:25:43;;;;;;;13.63;3.63;;;25.50;54.90;;;;;;5099097;28;20026;-82
2021/10/11 12:28:18;;;;;;;12.93;3.47;;;25.50;54.60;;;;;;5099296;28;20069;-82
2021/10/11 12:30:47;;;;;;;15.75;3.47;;;25.60;53.20;;;;;;5089011;28;20077;-82
2021/10/11 12:33:16;;;;;;;13.95;3.10;;;25.70;53.70;;;;;;5101960;28;20050;-81